Time;durP1;ratioP1;P1;durP2;ratioP2;P2;SDS_P1;SDS_P2;PMS_P1;PMS_P2;Temp;Humidity;BMP_temperature;BMP_pressure;BME280_temperature;BME280_humidity;BME280_pressure;Samples;Min_cycle;Max_cycle;Signal;HPM_P1;HPM_P2
2022/04/28 00:01:47;;;;;;;;;;;;;;;9.70;64.41;98870.44;4958856;28;19934;-74
2022/04/28 00:04:15;;;;;;;;;;;;;;;9.78;64.02;98867.09;4959821;28;19930;-74
2022/04/28 00:06:42;;;;;;;;;;;;;;;9.71;64.26;98867.44;4958186;28;19931;-74
2022/04/28 00:09:10;;;;;;;;;;;;;;;9.76;63.96;98865.78;4958919;28;19962;-73
2022/04/28 00:11:40;;;;;;;;;;;;;;;9.62;64.41;98871.03;4959553;28;20005;-74
2022/04/28 00:14:08;;;;;;;;;;;;;;;9.42;64.67;98877.38;4956687;28;20004;-74
2022/04/28 00:16:36;;;;;;;;;;;;;;;9.53;64.67;98865.38;4960762;28;20419;-74
2022/04/28 00:19:04;;;;;;;;;;;;;;;9.30;64.87;98866.88;4951609;28;20273;-74
2022/04/28 00:21:36;;;;;;;;;;;;;;;9.19;64.99;98868.00;4959481;28;19938;-74
2022/04/28 00:24:04;;;;;;;;;;;;;;;9.22;65.54;98866.66;4963929;28;20380;-74
2022/04/28 00:26:32;;;;;;;;;;;;;;;9.32;64.59;98870.13;4961832;28;20285;-74
2022/04/28 00:29:02;;;;;;;;;;;;;;;9.19;64.87;98876.16;4953072;28;19926;-74
2022/04/28 00:34:21;;;;;;;;;;;;;;;9.22;64.85;98867.47;4958587;28;20017;-74
2022/04/28 00:36:49;;;;;;;;;;;;;;;9.13;65.25;98866.41;4961369;28;19930;-75
2022/04/28 00:39:17;;;;;;;;;;;;;;;9.07;65.41;98870.25;4944283;28;20036;-74
2022/04/28 00:41:45;;;;;;;;;;;;;;;9.00;65.47;98867.00;4950386;28;19973;-75
2022/04/28 00:44:14;;;;;;;;;;;;;;;8.83;65.83;98868.16;4953706;28;20000;-74
2022/04/28 00:46:43;;;;;;;;;;;;;;;8.91;65.73;98864.88;4957619;28;20381;-75
2022/04/28 00:51:59;;;;;;;;;;;;;;;8.92;65.84;98866.50;4935294;28;19937;-75
2022/04/28 00:54:31;;;;;;;;;;;;;;;8.96;65.65;98863.25;4943910;28;20016;-75
2022/04/28 00:56:59;;;;;;;;;;;;;;;9.02;65.22;98864.84;4958993;28;20388;-75
2022/04/28 00:59:29;;;;;;;;;;;;;;;9.15;64.78;98866.94;4957299;28;20332;-75
2022/04/28 01:01:57;;;;;;;;;;;;;;;8.98;65.15;98877.31;4969852;28;19930;-75
2022/04/28 01:04:25;;;;;;;;;;;;;;;8.95;65.25;98869.72;4944472;28;20401;-75
2022/04/28 01:06:53;;;;;;;;;;;;;;;9.04;64.75;98873.50;4966676;28;20434;-75
2022/04/28 01:09:21;;;;;;;;;;;;;;;9.09;64.39;98873.47;4960114;28;19958;-74
2022/04/28 01:11:49;;;;;;;;;;;;;;;8.84;64.90;98867.09;4965173;28;19973;-75
2022/04/28 01:14:24;;;;;;;;;;;;;;;9.00;64.35;98869.72;4965782;28;19930;-75
2022/04/28 01:17:00;;;;;;;;;;;;;;;9.00;64.36;98870.53;4963822;28;19926;-74
2022/04/28 01:19:30;;;;;;;;;;;;;;;8.89;64.69;98869.78;4971266;28;20013;-74
2022/04/28 01:21:59;;;;;;;;;;;;;;;8.76;64.86;98873.06;4959997;28;19937;-74
2022/04/28 01:24:27;;;;;;;;;;;;;;;8.70;65.10;98874.16;4961573;28;20017;-74
2022/04/28 01:26:55;;;;;;;;;;;;;;;8.79;64.98;98875.22;4958528;28;20020;-74
2022/04/28 01:29:24;;;;;;;;;;;;;;;8.79;64.61;98869.81;4959189;28;19932;-74
2022/04/28 01:31:52;;;;;;;;;;;;;;;8.69;64.69;98867.13;4964904;28;20016;-74
2022/04/28 01:34:20;;;;;;;;;;;;;;;8.65;65.15;98871.47;4948590;28;19934;-74
2022/04/28 01:36:49;;;;;;;;;;;;;;;8.55;65.30;98872.28;4957309;28;19933;-75
2022/04/28 01:39:18;;;;;;;;;;;;;;;8.46;65.49;98873.13;4962121;28;19930;-74
2022/04/28 01:41:48;;;;;;;;;;;;;;;8.34;65.77;98871.50;4958671;28;19929;-74
2022/04/28 01:44:16;;;;;;;;;;;;;;;8.50;65.97;98876.91;4948334;28;19933;-74
2022/04/28 01:46:44;;;;;;;;;;;;;;;8.56;65.35;98878.53;4958731;28;19972;-74
2022/04/28 01:49:31;;;;;;;;;;;;;;;8.40;65.15;98873.13;4959834;28;20017;-74
2022/04/28 01:55:16;;;;;;;;;;;;;;;8.08;66.16;98872.59;4954490;28;20369;-74
2022/04/28 01:58:04;;;;;;;;;;;;;;;8.01;66.46;98870.16;4961396;28;19926;-74
2022/04/28 02:00:47;;;;;;;;;;;;;;;7.99;66.68;98872.34;4968846;28;19937;-74
2022/04/28 02:03:18;;;;;;;;;;;;;;;8.08;66.35;98872.59;4974421;28;19930;-74
2022/04/28 02:05:46;;;;;;;;;;;;;;;8.06;66.10;98866.66;4968605;28;19933;-74
2022/04/28 02:08:14;;;;;;;;;;;;;;;8.02;66.04;98873.69;4978762;28;19937;-74
2022/04/28 02:10:46;;;;;;;;;;;;;;;7.95;66.38;98871.25;4966587;28;19934;-74
2022/04/28 02:13:34;;;;;;;;;;;;;;;8.01;65.92;98861.25;4981498;28;20036;-74
2022/04/28 02:16:21;;;;;;;;;;;;;;;7.77;66.31;98871.78;4981497;28;20015;-74
2022/04/28 02:19:24;;;;;;;;;;;;;;;7.78;66.53;98879.63;4969951;28;19941;-74
2022/04/28 02:21:59;;;;;;;;;;;;;;;7.88;66.33;98874.22;4966675;28;19981;-76
2022/04/28 02:24:27;;;;;;;;;;;;;;;7.98;65.93;98868.00;4981767;28;19934;-76
2022/04/28 02:26:57;;;;;;;;;;;;;;;7.87;65.45;98872.59;4954857;28;19925;-76
2022/04/28 02:29:25;;;;;;;;;;;;;;;7.78;65.82;98878.81;4972304;28;19926;-75
2022/04/28 02:32:19;;;;;;;;;;;;;;;7.83;65.94;98871.53;4979214;28;19930;-75
2022/04/28 02:34:47;;;;;;;;;;;;;;;7.98;65.34;98878.81;4970207;28;20017;-75
2022/04/28 02:40:08;;;;;;;;;;;;;;;7.60;66.56;98877.44;4979951;28;19933;-75
2022/04/28 02:42:43;;;;;;;;;;;;;;;7.41;67.22;98873.63;4971521;28;19976;-76
2022/04/28 02:45:10;;;;;;;;;;;;;;;7.38;67.42;98877.66;4954688;28;20025;-76
2022/04/28 02:47:45;;;;;;;;;;;;;;;7.36;66.83;98887.94;4970445;28;20368;-76
2022/04/28 02:50:17;;;;;;;;;;;;;;;7.44;66.73;98878.47;4974328;28;20368;-76
2022/04/28 02:52:45;;;;;;;;;;;;;;;7.45;66.85;98878.22;4953187;28;19925;-76
2022/04/28 02:55:13;;;;;;;;;;;;;;;7.61;66.40;98881.75;4978693;28;20279;-76
2022/04/28 02:57:43;;;;;;;;;;;;;;;7.62;66.83;98880.69;4976526;28;20303;-76
2022/04/28 03:00:11;;;;;;;;;;;;;;;7.78;66.00;98889.66;4962095;28;19938;-76
2022/04/28 03:03:11;;;;;;;;;;;;;;;7.80;66.14;98882.88;4950884;28;20300;-76
2022/04/28 03:11:10;;;;;;;;;;;;;;;7.42;66.78;98881.47;4982080;28;19926;-75
2022/04/28 03:13:39;;;;;;;;;;;;;;;7.47;67.10;98883.38;4963270;28;19930;-75
2022/04/28 03:16:08;;;;;;;;;;;;;;;7.46;66.86;98889.88;4963007;28;20009;-75
2022/04/28 03:19:20;;;;;;;;;;;;;;;7.40;66.86;98897.13;4964506;28;19961;-76
2022/04/28 03:21:48;;;;;;;;;;;;;;;7.44;66.64;98897.41;4965049;28;19936;-75
2022/04/28 03:24:16;;;;;;;;;;;;;;;7.33;66.49;98897.38;4968475;28;19930;-75
2022/04/28 03:26:45;;;;;;;;;;;;;;;7.23;66.85;98893.81;4966310;28;20022;-75
2022/04/28 03:29:16;;;;;;;;;;;;;;;6.99;67.71;98899.69;4961238;28;19927;-75
2022/04/28 03:31:44;;;;;;;;;;;;;;;7.00;67.92;98903.22;4976283;28;20630;-75
2022/04/28 03:34:23;;;;;;;;;;;;;;;6.98;68.07;98903.47;4963235;28;19931;-75
2022/04/28 03:36:52;;;;;;;;;;;;;;;6.94;68.16;98898.88;4947765;28;19934;-75
2022/04/28 03:39:23;;;;;;;;;;;;;;;6.94;68.17;98904.25;4954266;28;20361;-76
2022/04/28 03:41:51;;;;;;;;;;;;;;;7.04;67.92;98902.41;4964745;28;20038;-76
2022/04/28 03:44:21;;;;;;;;;;;;;;;7.11;67.14;98915.69;4967486;28;20327;-76
2022/04/28 03:46:52;;;;;;;;;;;;;;;7.14;67.59;98912.47;4960336;28;20312;-75
2022/04/28 03:49:20;;;;;;;;;;;;;;;7.21;67.24;98910.31;4944927;28;19938;-76
2022/04/28 03:51:49;;;;;;;;;;;;;;;7.15;67.33;98916.78;4965238;28;20357;-76
2022/04/28 03:54:18;;;;;;;;;;;;;;;7.12;66.89;98919.19;4964860;28;19930;-76
2022/04/28 03:56:46;;;;;;;;;;;;;;;7.01;67.19;98918.34;4967416;28;19926;-76
2022/04/28 03:59:15;;;;;;;;;;;;;;;7.00;67.48;98919.41;4970989;28;19981;-75
2022/04/28 04:02:04;;;;;;;;;;;;;;;7.03;67.42;98922.41;4959476;28;20408;-76
2022/04/28 04:04:32;;;;;;;;;;;;;;;6.94;67.30;98923.19;4981139;28;19941;-75
2022/04/28 04:07:02;;;;;;;;;;;;;;;7.02;67.85;98925.34;4967046;28;19926;-75
2022/04/28 04:09:36;;;;;;;;;;;;;;;7.04;67.14;98934.84;4963616;28;20377;-75
2022/04/28 04:12:10;;;;;;;;;;;;;;;7.04;67.05;98931.34;4964834;28;19929;-76
2022/04/28 04:14:56;;;;;;;;;;;;;;;6.96;67.02;98929.13;4963725;28;19933;-76
2022/04/28 04:17:28;;;;;;;;;;;;;;;6.95;67.39;98930.19;4965434;28;19969;-75
2022/04/28 04:20:00;;;;;;;;;;;;;;;7.03;66.87;98926.97;4953933;28;20380;-75
2022/04/28 04:22:28;;;;;;;;;;;;;;;6.99;66.96;98926.72;4963635;28;20411;-75
2022/04/28 04:24:57;;;;;;;;;;;;;;;7.05;66.60;98927.56;4958178;28;19926;-75
2022/04/28 04:27:25;;;;;;;;;;;;;;;7.17;66.42;98928.13;4970847;28;19926;-75
2022/04/28 04:33:08;;;;;;;;;;;;;;;7.07;66.36;98942.41;4967025;28;19989;-76
2022/04/28 04:35:37;;;;;;;;;;;;;;;6.96;66.52;98939.91;4963090;28;19988;-75
2022/04/28 04:38:06;;;;;;;;;;;;;;;6.85;66.78;98943.66;4945744;28;19982;-74
2022/04/28 04:40:34;;;;;;;;;;;;;;;6.86;66.74;98942.56;4964218;28;19930;-74
2022/04/28 04:43:28;;;;;;;;;;;;;;;6.87;67.01;98944.19;4977399;28;19933;-73
2022/04/28 04:45:55;;;;;;;;;;;;;;;6.83;66.57;98947.44;4960223;28;20400;-74
2022/04/28 04:48:43;;;;;;;;;;;;;;;6.93;67.04;98953.97;4955990;28;19925;-76
2022/04/28 04:51:30;;;;;;;;;;;;;;;7.01;66.78;98956.16;4962950;28;19937;-73
2022/04/28 04:54:23;;;;;;;;;;;;;;;7.18;66.05;98959.47;4973621;28;20025;-76
2022/04/28 04:57:17;;;;;;;;;;;;;;;7.23;65.87;98964.91;4964810;28;20357;-75
2022/04/28 04:59:47;;;;;;;;;;;;;;;7.38;65.35;98964.16;4960124;28;20337;-76
2022/04/28 05:02:16;;;;;;;;;;;;;;;7.47;64.50;98965.28;4957493;28;19934;-74
2022/04/28 05:05:08;;;;;;;;;;;;;;;7.32;64.93;98974.16;4956978;28;20017;-74
2022/04/28 05:07:59;;;;;;;;;;;;;;;7.16;65.71;98975.16;4966828;28;20013;-74
2022/04/28 05:10:27;;;;;;;;;;;;;;;6.92;66.26;98969.34;4949240;28;19954;-74
2022/04/28 05:12:55;;;;;;;;;;;;;;;6.74;66.61;98978.69;4982368;28;19926;-74
2022/04/28 05:15:47;;;;;;;;;;;;;;;6.76;67.17;98975.72;4953962;28;20027;-74
2022/04/28 05:18:24;;;;;;;;;;;;;;;6.76;66.21;98976.53;4961609;28;20476;-74
2022/04/28 05:21:08;;;;;;;;;;;;;;;6.84;66.44;98983.34;4972573;28;19929;-73
2022/04/28 05:23:55;;;;;;;;;;;;;;;7.08;66.34;98978.34;4956705;28;19926;-76
2022/04/28 05:26:51;;;;;;;;;;;;;;;7.22;65.24;98987.63;4940839;28;19930;-75
2022/04/28 05:29:39;;;;;;;;;;;;;;;7.00;65.56;98986.97;4943036;28;19926;-76
2022/04/28 05:32:36;;;;;;;;;;;;;;;6.97;65.35;98990.16;4944076;28;20021;-73
2022/04/28 05:35:23;;;;;;;;;;;;;;;7.26;65.44;98991.44;4964083;28;19945;-74
2022/04/28 05:37:52;;;;;;;;;;;;;;;7.34;64.95;98992.81;4966959;28;19988;-74
2022/04/28 05:40:26;;;;;;;;;;;;;;;7.48;65.20;98995.84;4955877;28;20022;-75
2022/04/28 05:45:42;;;;;;;;;;;;;;;7.52;63.73;99005.06;4958722;28;20097;-74
2022/04/28 05:48:14;;;;;;;;;;;;;;;7.59;64.20;99005.63;4959234;28;19926;-74
2022/04/28 05:50:44;;;;;;;;;;;;;;;7.74;63.45;99010.28;4966494;28;19933;-75
2022/04/28 05:53:15;;;;;;;;;;;;;;;7.84;63.27;99007.59;4962204;28;19942;-74
2022/04/28 05:55:46;;;;;;;;;;;;;;;7.94;63.27;99015.75;4979334;28;20181;-73
2022/04/28 05:58:14;;;;;;;;;;;;;;;7.84;63.60;99015.72;4960782;28;20726;-74
2022/04/28 06:00:49;;;;;;;;;;;;;;;7.91;63.78;99013.56;4969472;28;19969;-74
2022/04/28 06:03:17;;;;;;;;;;;;;;;8.23;62.55;99005.25;4980874;28;19926;-74
2022/04/28 06:05:59;;;;;;;;;;;;;;;8.54;62.04;99010.72;4985615;28;19930;-74
2022/04/28 06:08:28;;;;;;;;;;;;;;;8.53;61.84;99003.69;4986717;28;19926;-73
2022/04/28 06:10:57;;;;;;;;;;;;;;;8.42;61.70;99010.16;4973758;28;19926;-73
2022/04/28 06:13:27;;;;;;;;;;;;;;;8.42;62.50;99008.28;4978936;28;19930;-74
2022/04/28 06:16:21;;;;;;;;;;;;;;;8.88;62.19;99017.19;4964573;28;19933;-73
2022/04/28 06:19:25;;;;;;;;;;;;;;;9.07;60.93;99014.72;4965712;28;20020;-78
2022/04/28 06:22:18;;;;;;;;;;;;;;;9.20;60.40;99013.31;4974990;28;20373;-78
2022/04/28 06:24:52;;;;;;;;;;;;;;;9.50;59.71;99022.47;4977960;28;20024;-77
2022/04/28 06:27:22;;;;;;;;;;;;;;;9.77;59.61;99025.59;4981750;28;19934;-76
2022/04/28 06:29:52;;;;;;;;;;;;;;;10.05;58.72;99020.56;4981789;28;19930;-76
2022/04/28 06:32:21;;;;;;;;;;;;;;;10.22;57.94;99023.72;4975649;28;19930;-75
2022/04/28 06:35:22;;;;;;;;;;;;;;;10.40;57.53;99025.00;4971629;28;19980;-81
2022/04/28 06:40:43;;;;;;;;;;;;;;;10.91;56.31;99022.66;4973189;28;20005;-74
2022/04/28 06:43:18;;;;;;;;;;;;;;;10.89;55.44;99021.34;4968866;28;19933;-78
2022/04/28 06:46:24;;;;;;;;;;;;;;;11.08;54.71;99024.97;4928493;29;19935;-73
2022/04/28 06:49:10;;;;;;;;;;;;;;;11.32;55.16;99029.59;4928113;29;20389;-76
2022/04/28 06:51:57;;;;;;;;;;;;;;;11.52;54.25;99032.09;4965650;28;19926;-79
2022/04/28 06:54:51;;;;;;;;;;;;;;;11.89;52.93;99030.59;4966548;28;19930;-78
2022/04/28 06:57:25;;;;;;;;;;;;;;;11.87;53.18;99030.88;4964217;28;19935;-80
2022/04/28 06:59:53;;;;;;;;;;;;;;;12.00;53.32;99032.09;4950655;28;19931;-80
2022/04/28 07:02:21;;;;;;;;;;;;;;;12.05;53.09;99035.56;4952666;28;19926;-77
2022/04/28 07:04:53;;;;;;;;;;;;;;;12.15;53.14;99039.25;4951510;28;19930;-78
2022/04/28 07:07:24;;;;;;;;;;;;;;;12.11;53.21;99032.75;4958528;28;19931;-83
2022/04/28 07:09:56;;;;;;;;;;;;;;;11.65;53.03;99034.13;4952299;28;19965;-80
2022/04/28 07:12:36;;;;;;;;;;;;;;;11.51;53.68;99033.22;4939665;28;19961;-81
2022/04/28 07:15:30;;;;;;;;;;;;;;;11.74;53.52;99037.00;4957339;28;19936;-82
2022/04/28 07:18:28;;;;;;;;;;;;;;;12.12;53.26;99045.28;4945415;28;20335;-80
2022/04/28 07:21:21;;;;;;;;;;;;;;;12.37;53.27;99042.19;4961147;28;19927;-78
2022/04/28 07:23:55;;;;;;;;;;;;;;;12.48;52.14;99045.56;4945839;28;19926;-77
2022/04/28 07:26:23;;;;;;;;;;;;;;;12.37;51.85;99047.63;4950366;28;19986;-82
2022/04/28 07:28:52;;;;;;;;;;;;;;;12.56;52.23;99053.06;4960282;28;19930;-81
2022/04/28 07:31:39;;;;;;;;;;;;;;;12.69;52.17;99048.78;4964569;28;20288;-80
2022/04/28 07:34:27;;;;;;;;;;;;;;;12.98;51.16;99041.19;4960412;28;19926;-80
2022/04/28 07:40:48;;;;;;;;;;;;;;;13.28;50.75;99053.53;4965652;28;20309;-75
2022/04/28 07:43:20;;;;;;;;;;;;;;;13.20;50.05;99047.91;4932313;28;19935;-76
2022/04/28 07:45:53;;;;;;;;;;;;;;;13.01;50.50;99054.25;4951209;28;19926;-76
2022/04/28 07:48:21;;;;;;;;;;;;;;;13.08;50.36;99045.66;4946497;28;20009;-76
2022/04/28 07:50:50;;;;;;;;;;;;;;;13.49;49.83;99061.34;4948170;28;19930;-75
2022/04/28 07:53:24;;;;;;;;;;;;;;;13.72;48.59;99056.78;4948935;28;19974;-75
2022/04/28 07:58:33;;;;;;;;;;;;;;;14.09;48.39;99053.81;4958915;28;19934;-75
2022/04/28 08:01:16;;;;;;;;;;;;;;;14.12;48.51;99049.66;4944661;28;20292;-75
2022/04/28 08:03:44;;;;;;;;;;;;;;;14.00;48.28;99050.16;4948116;28;20396;-75
2022/04/28 08:06:14;;;;;;;;;;;;;;;14.41;47.66;99049.28;4945372;28;19934;-76
2022/04/28 08:08:43;;;;;;;;;;;;;;;14.47;47.42;99059.00;4949348;28;19985;-75
2022/04/28 08:11:36;;;;;;;;;;;;;;;14.71;46.30;99049.72;4960478;28;19957;-76
2022/04/28 08:14:04;;;;;;;;;;;;;;;14.79;46.06;99051.69;4943831;28;19930;-75
2022/04/28 08:16:33;;;;;;;;;;;;;;;14.91;44.60;99057.41;4948646;28;20021;-75
2022/04/28 08:19:09;;;;;;;;;;;;;;;14.76;45.50;99046.88;4949078;28;19926;-75
2022/04/28 08:21:44;;;;;;;;;;;;;;;15.11;44.93;99048.69;4951750;28;20392;-75
2022/04/28 08:24:13;;;;;;;;;;;;;;;15.09;44.48;99055.59;4953162;28;19937;-75
2022/04/28 08:26:44;;;;;;;;;;;;;;;14.98;42.03;99046.03;4933597;28;20792;-75
2022/04/28 08:29:12;;;;;;;;;;;;;;;15.31;42.32;99052.81;4958313;28;20304;-76
2022/04/28 08:31:46;;;;;;;;;;;;;;;15.50;42.97;99057.25;4958951;28;19927;-74
2022/04/28 08:34:19;;;;;;;;;;;;;;;15.71;41.61;99056.44;4948689;28;19930;-74
2022/04/28 08:36:47;;;;;;;;;;;;;;;15.97;42.01;99055.66;4950722;28;19926;-74
2022/04/28 08:39:16;;;;;;;;;;;;;;;15.95;40.70;99055.19;4943575;28;20025;-74
2022/04/28 08:41:45;;;;;;;;;;;;;;;16.10;40.02;99057.50;4948328;28;19958;-74
2022/04/28 08:44:20;;;;;;;;;;;;;;;16.18;41.24;99062.16;4964037;28;19927;-77
2022/04/28 08:46:55;;;;;;;;;;;;;;;16.23;38.96;99055.72;4967836;28;19926;-73
2022/04/28 08:49:28;;;;;;;;;;;;;;;16.40;38.15;99060.41;4958805;28;19926;-73
2022/04/28 08:52:15;;;;;;;;;;;;;;;16.14;36.00;99054.91;4958078;28;19926;-73
2022/04/28 08:54:45;;;;;;;;;;;;;;;16.31;35.83;99051.41;4956556;28;19938;-73
2022/04/28 08:57:14;;;;;;;;;;;;;;;16.35;35.91;99050.44;4959863;28;19930;-73
2022/04/28 08:59:44;;;;;;;;;;;;;;;16.69;36.82;99057.84;4950638;28;20101;-72
2022/04/28 09:02:13;;;;;;;;;;;;;;;16.91;35.74;99064.31;4949914;28;19949;-72
2022/04/28 09:05:13;;;;;;;;;;;;;;;16.73;35.44;99058.84;4951858;28;19940;-74
2022/04/28 09:08:25;;;;;;;;;;;;;;;16.92;36.02;99057.69;4973632;28;20036;-72
2022/04/28 09:11:19;;;;;;;;;;;;;;;17.17;35.46;99058.78;4971503;28;19926;-71
2022/04/28 09:14:14;;;;;;;;;;;;;;;16.86;34.56;99057.06;4948469;28;20036;-71
2022/04/28 09:16:45;;;;;;;;;;;;;;;17.00;35.72;99056.88;4952161;28;19934;-73
2022/04/28 09:19:16;;;;;;;;;;;;;;;16.96;33.23;99056.72;4948054;28;19926;-74
2022/04/28 09:21:45;;;;;;;;;;;;;;;16.65;32.46;99056.88;4947539;28;19933;-72
2022/04/28 09:24:14;;;;;;;;;;;;;;;16.74;33.00;99062.41;4953811;28;19933;-71
2022/04/28 09:26:43;;;;;;;;;;;;;;;16.96;32.16;99058.66;4965630;28;19930;-78
2022/04/28 09:29:13;;;;;;;;;;;;;;;16.50;30.94;99057.34;4946348;28;20009;-78
2022/04/28 09:31:44;;;;;;;;;;;;;;;16.47;32.73;99055.28;4950089;28;20300;-73
2022/04/28 09:35:11;;;;;;;;;;;;;;;17.26;35.77;99043.91;4955145;28;19940;-71
2022/04/28 09:38:00;;;;;;;;;;;;;;;17.66;32.17;99046.34;4958179;28;19926;-72
2022/04/28 09:43:39;;;;;;;;;;;;;;;18.17;31.84;99036.22;4947993;28;19953;-71
2022/04/28 09:46:10;;;;;;;;;;;;;;;18.42;32.12;99028.91;4933339;28;19933;-71
2022/04/28 09:48:39;;;;;;;;;;;;;;;18.53;29.58;99034.81;4952814;28;19927;-70
2022/04/28 09:51:11;;;;;;;;;;;;;;;18.23;27.63;99034.88;4949467;28;19926;-71
2022/04/28 09:53:58;;;;;;;;;;;;;;;18.36;31.29;99044.00;4957776;28;19930;-71
2022/04/28 09:56:34;;;;;;;;;;;;;;;18.69;29.97;99038.56;4953072;28;19981;-71
2022/04/28 09:59:11;;;;;;;;;;;;;;;18.68;27.46;99036.16;4962510;28;19937;-72
2022/04/28 10:01:39;;;;;;;;;;;;;;;18.73;29.39;99036.75;4965546;28;19961;-71
2022/04/28 10:04:08;;;;;;;;;;;;;;;19.01;27.68;99030.66;4963283;28;19926;-75
2022/04/28 10:06:57;;;;;;;;;;;;;;;18.84;27.46;99037.16;4953988;28;19930;-71
2022/04/28 10:09:33;;;;;;;;;;;;;;;18.44;27.36;99031.34;4973274;28;20009;-73
2022/04/28 10:12:14;;;;;;;;;;;;;;;18.81;30.75;99035.91;4963484;28;19938;-72
2022/04/28 10:14:55;;;;;;;;;;;;;;;18.59;26.66;99039.78;4965747;28;20021;-71
2022/04/28 10:17:27;;;;;;;;;;;;;;;18.23;27.03;99034.88;4947927;28;20416;-71
2022/04/28 10:19:56;;;;;;;;;;;;;;;18.54;27.25;99030.94;4961059;28;20333;-73
2022/04/28 10:22:48;;;;;;;;;;;;;;;18.76;28.58;99032.53;4959093;28;20069;-73
2022/04/28 10:34:26;;;;;;;;;;;;;;;18.33;29.92;99031.75;4958842;28;19930;-73
2022/04/28 10:36:55;;;;;;;;;;;;;;;18.35;29.89;99034.16;4955714;28;19930;-73
2022/04/28 10:39:39;;;;;;;;;;;;;;;18.39;28.27;99034.28;4965250;28;19981;-75
2022/04/28 10:42:15;;;;;;;;;;;;;;;18.46;28.42;99035.34;4959443;28;19926;-73
2022/04/28 10:44:54;;;;;;;;;;;;;;;18.62;28.06;99027.28;4965650;28;19938;-72
2022/04/28 10:47:22;;;;;;;;;;;;;;;18.33;28.72;99031.75;4961471;28;19927;-76
2022/04/28 10:49:59;;;;;;;;;;;;;;;18.44;28.19;99031.34;4958750;28;19948;-72
2022/04/28 10:52:52;;;;;;;;;;;;;;;18.55;26.76;99025.09;4958854;28;19996;-71
2022/04/28 10:55:23;;;;;;;;;;;;;;;18.76;27.50;99030.59;4955878;28;20664;-70
2022/04/28 10:57:50;;;;;;;;;;;;;;;18.89;28.47;99025.94;4982720;28;19934;-70
2022/04/28 11:00:33;;;;;;;;;;;;;;;19.26;27.86;99035.09;4980151;28;19930;-70
2022/04/28 11:03:01;;;;;;;;;;;;;;;19.53;28.18;99027.34;4982232;28;20426;-71
2022/04/28 11:05:33;;;;;;;;;;;;;;;19.26;28.34;99037.84;4967031;28;19932;-68
2022/04/28 11:11:09;;;;;;;;;;;;;;;19.60;25.96;99027.59;4971986;28;19933;-74
2022/04/28 11:13:37;;;;;;;;;;;;;;;19.68;26.17;99034.94;4970018;28;20291;-74
2022/04/28 11:16:08;;;;;;;;;;;;;;;19.74;26.40;99021.75;4968673;28;19926;-70
2022/04/28 11:21:52;;;;;;;;;;;;;;;18.37;27.95;99039.31;4992071;28;19926;-70
2022/04/28 11:24:21;;;;;;;;;;;;;;;18.41;28.72;99032.00;4974394;28;19957;-71
2022/04/28 11:26:56;;;;;;;;;;;;;;;18.33;27.63;99034.50;4978680;28;20295;-71
2022/04/28 11:29:47;;;;;;;;;;;;;;;18.24;28.24;99031.00;4971054;28;19975;-71
2022/04/28 11:32:16;;;;;;;;;;;;;;;18.00;30.04;99028.06;4981457;28;19953;-71
2022/04/28 11:34:45;;;;;;;;;;;;;;;17.80;28.17;99035.94;4961567;28;19934;-71
2022/04/28 11:40:13;;;;;;;;;;;;;;;17.71;28.52;99026.91;4975796;28;20011;-77
2022/04/28 11:42:57;;;;;;;;;;;;;;;17.59;28.36;99024.06;4976953;28;19934;-76
2022/04/28 11:45:52;;;;;;;;;;;;;;;17.53;27.89;99025.38;4971039;28;19960;-77
2022/04/28 11:48:20;;;;;;;;;;;;;;;17.48;28.11;99018.13;4977869;28;19930;-76
2022/04/28 11:50:48;;;;;;;;;;;;;;;17.51;28.99;99020.22;4983414;28;19926;-77
2022/04/28 11:53:17;;;;;;;;;;;;;;;17.42;28.83;99018.66;4979173;28;19926;-76
2022/04/28 11:55:48;;;;;;;;;;;;;;;17.88;29.94;99016.97;4981204;28;19934;-77
2022/04/28 11:58:17;;;;;;;;;;;;;;;18.05;27.91;99008.63;4984513;28;19981;-77
2022/04/28 12:00:47;;;;;;;;;;;;;;;18.32;27.40;99018.28;4982068;28;20012;-77
2022/04/28 12:03:23;;;;;;;;;;;;;;;18.48;27.66;99015.75;4980539;28;20021;-76
2022/04/28 12:05:51;;;;;;;;;;;;;;;18.65;27.08;99021.13;4981761;28;19953;-76
2022/04/28 12:08:23;;;;;;;;;;;;;;;18.56;27.90;99010.19;4971585;28;19926;-77
2022/04/28 12:19:19;;;;;;;;;;;;;;;19.20;26.29;99025.44;4979918;28;19926;-78
2022/04/28 12:19:19;;;;;;;;;;;;;;;19.28;26.74;99016.28;4976784;28;20029;-76
2022/04/28 12:21:48;;;;;;;;;;;;;;;19.32;26.34;99011.69;4978641;28;20372;-76
2022/04/28 12:24:18;;;;;;;;;;;;;;;19.43;27.60;99011.25;4974319;28;19944;-76
2022/04/28 12:26:47;;;;;;;;;;;;;;;18.96;28.65;99014.34;4965647;28;19957;-76
2022/04/28 12:29:52;;;;;;;;;;;;;;;18.56;30.01;99014.88;4981380;28;20086;-71
2022/04/28 12:32:21;;;;;;;;;;;;;;;18.34;29.45;99007.78;4982778;28;19933;-69
2022/04/28 12:35:03;;;;;;;;;;;;;;;18.55;29.81;99003.06;4971098;28;19926;-71
2022/04/28 12:40:27;;;;;;;;;;;;;;;18.40;28.40;98994.63;4982680;28;20436;-69
2022/04/28 12:42:57;;;;;;;;;;;;;;;18.43;28.41;98993.94;4978899;28;20995;-70
2022/04/28 12:45:57;;;;;;;;;;;;;;;18.56;27.79;99004.66;4974426;28;19936;-69
2022/04/28 12:48:31;;;;;;;;;;;;;;;18.44;27.76;98992.81;4979310;28;19925;-69
2022/04/28 12:51:13;;;;;;;;;;;;;;;18.71;27.12;98992.28;4985000;28;19996;-69
2022/04/28 12:53:42;;;;;;;;;;;;;;;18.33;27.02;98992.41;4981505;28;20028;-72
2022/04/28 12:56:10;;;;;;;;;;;;;;;18.34;27.07;98988.53;4971756;28;20396;-74
2022/04/28 12:58:40;;;;;;;;;;;;;;;18.38;27.87;98988.66;4963654;28;19926;-75
2022/04/28 13:01:14;;;;;;;;;;;;;;;18.33;28.24;98989.66;4949896;28;20398;-74
2022/04/28 13:03:51;;;;;;;;;;;;;;;18.38;27.71;98981.22;4958253;28;20579;-73
2022/04/28 13:06:19;;;;;;;;;;;;;;;18.16;27.94;98987.84;4956987;28;19926;-73
2022/04/28 13:09:17;;;;;;;;;;;;;;;18.18;27.56;98980.06;4950351;28;19980;-73
2022/04/28 13:11:45;;;;;;;;;;;;;;;18.06;29.36;98977.25;4949363;28;19930;-72
2022/04/28 13:14:14;;;;;;;;;;;;;;;18.32;28.36;98975.09;4952691;28;19930;-72
2022/04/28 13:16:43;;;;;;;;;;;;;;;18.42;28.93;98973.88;4952789;28;20373;-72
2022/04/28 13:19:22;;;;;;;;;;;;;;;18.38;28.14;98972.97;4959767;28;20009;-72
2022/04/28 13:22:25;;;;;;;;;;;;;;;18.41;28.25;98965.97;4942223;28;20399;-73
2022/04/28 13:24:54;;;;;;;;;;;;;;;18.36;27.42;98963.41;4955601;28;19981;-73
2022/04/28 13:27:22;;;;;;;;;;;;;;;18.58;27.23;98960.28;4957838;28;19930;-73
2022/04/28 13:29:50;;;;;;;;;;;;;;;18.67;26.99;98968.47;4965267;28;20033;-71
2022/04/28 13:32:19;;;;;;;;;;;;;;;18.77;26.25;98948.81;4948884;28;19954;-73
2022/04/28 13:34:48;;;;;;;;;;;;;;;19.05;27.52;98948.97;4955966;28;20033;-73
2022/04/28 13:37:15;;;;;;;;;;;;;;;19.37;26.95;98945.31;4959551;28;20058;-73
2022/04/28 13:39:44;;;;;;;;;;;;;;;19.39;27.02;98945.00;4961722;28;20451;-73
2022/04/28 13:42:12;;;;;;;;;;;;;;;18.94;27.09;98942.31;4960184;28;20243;-73
2022/04/28 13:44:40;;;;;;;;;;;;;;;19.10;26.97;98948.75;4947585;28;20086;-73
2022/04/28 13:47:10;;;;;;;;;;;;;;;19.05;26.84;98940.72;4960446;28;19934;-72
2022/04/28 13:49:39;;;;;;;;;;;;;;;19.19;26.91;98941.19;4958600;28;19926;-73
2022/04/28 13:52:09;;;;;;;;;;;;;;;19.14;27.85;98943.38;4965909;28;19934;-75
2022/04/28 13:54:37;;;;;;;;;;;;;;;19.35;27.88;98933.06;4967046;28;20045;-72
2022/04/28 13:57:05;;;;;;;;;;;;;;;19.63;26.41;98927.66;4959768;28;19927;-71
2022/04/28 13:59:34;;;;;;;;;;;;;;;19.55;26.52;98934.91;4957573;28;19926;-74
2022/04/28 14:02:02;;;;;;;;;;;;;;;19.71;26.80;98932.28;4960307;28;19933;-76
2022/04/28 14:04:29;;;;;;;;;;;;;;;19.49;26.27;98935.44;4957386;28;20380;-70
2022/04/28 14:06:59;;;;;;;;;;;;;;;19.58;26.34;98930.63;4959735;28;19977;-74
2022/04/28 14:09:27;;;;;;;;;;;;;;;19.50;25.53;98929.63;4962876;28;19973;-74
2022/04/28 14:11:56;;;;;;;;;;;;;;;19.55;25.88;98928.59;4926739;28;20636;-73
2022/04/28 14:14:23;;;;;;;;;;;;;;;19.65;26.76;98930.06;4964237;28;19926;-74
2022/04/28 14:16:51;;;;;;;;;;;;;;;19.82;26.75;98925.13;4939576;28;19934;-74
2022/04/28 14:19:20;;;;;;;;;;;;;;;19.34;26.41;98912.16;4962110;28;19936;-74
2022/04/28 14:21:48;;;;;;;;;;;;;;;18.87;27.13;98917.28;4953356;28;20404;-72
2022/04/28 14:24:18;;;;;;;;;;;;;;;18.61;26.82;98912.84;4965218;28;20506;-74
2022/04/28 14:26:46;;;;;;;;;;;;;;;18.65;27.15;98915.72;4965223;28;19949;-74
2022/04/28 14:29:14;;;;;;;;;;;;;;;18.52;27.76;98923.13;4958365;28;19974;-74
2022/04/28 14:31:43;;;;;;;;;;;;;;;18.35;27.59;98917.78;4961766;28;19930;-74